createdAt,value
2018-08-07T00:01:15.724Z,59.29
2018-08-07T00:03:44.049Z,59.62
2018-08-07T00:06:11.394Z,59.28
2018-08-07T00:08:38.668Z,59.57
2018-08-07T00:11:05.951Z,59.68
2018-08-07T00:13:33.303Z,59.73
2018-08-07T00:16:00.753Z,59.57
2018-08-07T00:18:28.075Z,60.53
2018-08-07T00:20:55.393Z,60.15
2018-08-07T00:23:22.716Z,61.27
2018-08-07T00:25:50.060Z,60.35
2018-08-07T00:28:17.371Z,60.59
2018-08-07T00:30:44.684Z,60.68
2018-08-07T00:33:12.022Z,61.58
2018-08-07T00:35:39.313Z,61.49
2018-08-07T00:38:06.664Z,61.95
2018-08-07T00:40:33.929Z,61.86
2018-08-07T00:43:01.276Z,61.47
2018-08-07T00:45:28.573Z,61.75
2018-08-07T00:47:55.844Z,61.49
2018-08-07T00:50:23.190Z,62.09
2018-08-07T00:52:51.169Z,61.33
2018-08-07T00:55:19.126Z,61.37
2018-08-07T00:57:47.000Z,61.70
2018-08-07T01:00:14.607Z,61.37
2018-08-07T01:02:41.902Z,62.08
2018-08-07T01:05:11.948Z,62.01
2018-08-07T01:07:39.459Z,61.66
2018-08-07T01:10:08.834Z,61.18
2018-08-07T01:12:36.582Z,60.92
2018-08-07T01:15:05.714Z,60.62
2018-08-07T01:17:33.052Z,61.38
2018-08-07T01:20:00.553Z,61.63
2018-08-07T01:22:27.816Z,61.95
2018-08-07T01:24:55.140Z,61.17
2018-08-07T01:27:22.486Z,62.30
2018-08-07T01:29:49.760Z,62.16
2018-08-07T01:32:17.053Z,62.35
2018-08-07T01:34:44.378Z,62.52
2018-08-07T01:37:11.746Z,62.23
2018-08-07T01:39:39.033Z,62.47
2018-08-07T01:42:06.354Z,61.74
2018-08-07T01:44:33.677Z,62.17
2018-08-07T01:47:00.981Z,62.35
2018-08-07T01:49:28.314Z,61.78
2018-08-07T01:51:55.607Z,62.36
2018-08-07T01:54:22.908Z,62.08
2018-08-07T01:56:50.251Z,62.21
2018-08-07T01:59:17.568Z,61.90
2018-08-07T02:01:45.980Z,62.89
2018-08-07T02:04:13.189Z,62.43
2018-08-07T02:06:40.490Z,61.72
2018-08-07T02:09:08.359Z,61.70
2018-08-07T02:11:35.717Z,62.55
2018-08-07T02:14:03.061Z,62.65
2018-08-07T02:16:30.394Z,62.69
2018-08-07T02:18:57.678Z,62.01
2018-08-07T02:21:24.997Z,62.38
2018-08-07T02:23:52.361Z,62.34
2018-08-07T02:26:19.604Z,62.20
2018-08-07T02:28:46.911Z,61.71
2018-08-07T02:31:14.218Z,62.73
2018-08-07T02:33:41.489Z,62.69
2018-08-07T02:36:08.787Z,62.11
2018-08-07T02:38:36.039Z,63.02
2018-08-07T02:41:03.359Z,62.92
2018-08-07T02:43:30.758Z,62.13
2018-08-07T02:45:58.057Z,62.72
2018-08-07T02:48:25.352Z,61.92
2018-08-07T02:50:52.743Z,62.67
2018-08-07T02:53:20.076Z,62.43
2018-08-07T02:55:47.371Z,63.36
2018-08-07T02:58:14.631Z,62.93
2018-08-07T03:00:43.221Z,63.05
2018-08-07T03:03:10.499Z,63.43
2018-08-07T03:05:37.878Z,63.15
2018-08-07T03:08:06.075Z,62.62
2018-08-07T03:10:33.452Z,63.25
2018-08-07T03:13:00.813Z,64.50
2018-08-07T03:15:28.172Z,64.46
2018-08-07T03:17:55.542Z,64.20
2018-08-07T03:20:22.851Z,64.01
2018-08-07T03:22:50.161Z,64.83
2018-08-07T03:25:17.463Z,64.38
2018-08-07T03:27:45.341Z,64.33
2018-08-07T03:30:14.310Z,64.38
2018-08-07T03:32:41.736Z,64.36
2018-08-07T03:35:09.380Z,65.87
2018-08-07T03:37:37.575Z,65.55
2018-08-07T03:40:07.259Z,65.35
2018-08-07T03:42:34.592Z,66.17
2018-08-07T03:45:01.858Z,66.27
2018-08-07T03:47:29.198Z,66.35
2018-08-07T03:49:56.465Z,66.04
2018-08-07T03:52:23.773Z,66.05
2018-08-07T03:54:51.033Z,66.76
2018-08-07T03:57:18.370Z,67.35
2018-08-07T03:59:45.700Z,67.31
2018-08-07T04:02:12.974Z,67.57
2018-08-07T04:04:40.274Z,67.87
2018-08-07T04:07:07.463Z,67.17
2018-08-07T04:09:34.770Z,67.16
2018-08-07T04:12:02.013Z,67.53
2018-08-07T04:14:29.298Z,67.44
2018-08-07T04:16:56.633Z,67.93
2018-08-07T04:19:26.185Z,67.76
2018-08-07T04:21:53.947Z,66.98
2018-08-07T04:24:21.239Z,67.71
2018-08-07T04:26:48.584Z,68.18
2018-08-07T04:29:15.946Z,69.31
2018-08-07T04:31:43.322Z,69.15
2018-08-07T04:34:10.545Z,68.83
2018-08-07T04:36:37.851Z,68.66
2018-08-07T04:39:07.571Z,68.14
2018-08-07T04:41:35.038Z,68.30
2018-08-07T04:44:02.567Z,68.39
2018-08-07T04:46:29.770Z,68.69
2018-08-07T04:48:57.232Z,67.96
2018-08-07T04:51:24.605Z,68.11
2018-08-07T04:53:51.912Z,68.12
2018-08-07T04:56:19.181Z,66.62
2018-08-07T04:58:46.513Z,67.15
2018-08-07T05:01:13.809Z,67.68
2018-08-07T05:03:41.074Z,66.57
2018-08-07T05:06:08.376Z,66.97
2018-08-07T05:08:35.655Z,67.64
2018-08-07T05:11:03.034Z,68.10
2018-08-07T05:13:30.394Z,67.89
2018-08-07T05:15:57.685Z,68.18
2018-08-07T05:18:25.014Z,67.54
2018-08-07T05:20:52.288Z,68.09
2018-08-07T05:23:19.620Z,66.56
2018-08-07T05:25:46.886Z,66.72
2018-08-07T05:28:14.097Z,66.28
2018-08-07T05:30:41.463Z,66.19
2018-08-07T05:33:08.789Z,64.97
2018-08-07T05:35:36.100Z,65.34
2018-08-07T05:38:03.456Z,64.64
2018-08-07T05:40:30.813Z,64.60
2018-08-07T05:42:58.037Z,64.38
2018-08-07T05:45:25.355Z,64.30
2018-08-07T05:47:52.633Z,63.92
2018-08-07T05:50:20.856Z,64.35
2018-08-07T05:52:48.110Z,64.24
2018-08-07T05:55:15.579Z,65.11
2018-08-07T05:57:42.826Z,63.89
2018-08-07T06:00:13.234Z,62.77
2018-08-07T06:02:40.464Z,62.91
2018-08-07T06:05:08.196Z,62.17
2018-08-07T06:07:35.501Z,61.96
2018-08-07T06:10:03.176Z,61.19
2018-08-07T06:12:30.505Z,60.77
2018-08-07T06:14:57.810Z,61.82
2018-08-07T06:17:25.134Z,60.98
2018-08-07T06:19:52.385Z,60.11
2018-08-07T06:22:19.678Z,59.83
2018-08-07T06:24:46.990Z,58.25
2018-08-07T06:27:14.359Z,59.32
2018-08-07T06:29:41.698Z,58.32
2018-08-07T06:32:09.010Z,58.43
2018-08-07T06:34:36.308Z,57.66
2018-08-07T06:37:03.684Z,57.68
2018-08-07T06:39:31.115Z,56.81
2018-08-07T06:41:58.625Z,56.00
2018-08-07T06:44:25.931Z,55.90
2018-08-07T06:46:53.327Z,55.26
2018-08-07T06:49:20.712Z,55.74
2018-08-07T06:51:48.001Z,55.04
2018-08-07T06:54:15.239Z,55.56
2018-08-07T06:56:42.569Z,54.63
2018-08-07T06:59:09.910Z,54.79
2018-08-07T07:01:37.669Z,53.41
2018-08-07T07:04:05.102Z,54.41
2018-08-07T07:06:32.382Z,54.98
2018-08-07T07:08:59.613Z,54.70
2018-08-07T07:11:26.917Z,53.46
2018-08-07T07:13:54.198Z,54.72
2018-08-07T07:16:21.537Z,54.96
2018-08-07T07:18:48.817Z,53.41
2018-08-07T07:21:16.085Z,54.61
2018-08-07T07:23:43.406Z,53.18
2018-08-07T07:26:10.701Z,52.70
2018-08-07T07:28:37.973Z,52.11
2018-08-07T07:31:05.423Z,52.90
2018-08-07T07:33:32.717Z,53.03
2018-08-07T07:36:00.007Z,53.41
2018-08-07T07:38:27.333Z,53.22
2018-08-07T07:40:54.563Z,52.30
2018-08-07T07:43:21.996Z,52.32
2018-08-07T07:45:49.428Z,50.95
2018-08-07T07:48:16.681Z,50.34
2018-08-07T07:50:43.942Z,49.90
2018-08-07T07:53:11.269Z,50.63
2018-08-07T07:55:38.565Z,49.69
2018-08-07T07:58:06.084Z,48.73
2018-08-07T08:00:33.406Z,49.13
2018-08-07T08:03:00.688Z,49.17
2018-08-07T08:05:28.076Z,49.16
2018-08-07T08:07:55.690Z,48.93
2018-08-07T08:10:23.008Z,49.03
2018-08-07T08:12:50.303Z,47.65
2018-08-07T08:15:18.133Z,47.11
2018-08-07T08:17:46.256Z,46.63
2018-08-07T08:20:18.591Z,47.11
2018-08-07T08:22:46.348Z,46.05
2018-08-07T08:25:13.604Z,46.50
2018-08-07T08:27:40.979Z,46.49
2018-08-07T08:30:15.841Z,46.18
2018-08-07T08:32:43.732Z,47.15
2018-08-07T08:35:12.796Z,46.55
2018-08-07T08:37:40.438Z,46.83
2018-08-07T08:40:10.223Z,45.78
2018-08-07T08:42:38.315Z,46.50
2018-08-07T08:45:08.565Z,46.23
2018-08-07T08:47:35.894Z,45.70
2018-08-07T08:50:04.008Z,44.00
2018-08-07T08:52:31.314Z,43.90
2018-08-07T08:54:58.587Z,43.71
2018-08-07T08:57:25.965Z,43.54
2018-08-07T08:59:53.349Z,44.13
2018-08-07T09:02:20.803Z,42.83
2018-08-07T09:04:49.860Z,42.48
2018-08-07T09:07:17.207Z,41.79
2018-08-07T09:09:45.244Z,39.77
2018-08-07T09:12:13.154Z,40.75
2018-08-07T09:14:40.479Z,41.02
2018-08-07T09:17:07.784Z,39.11
2018-08-07T09:19:35.111Z,38.81
2018-08-07T09:22:02.441Z,38.93
2018-08-07T09:24:29.693Z,39.51
2018-08-07T09:26:56.990Z,39.70
2018-08-07T09:29:24.281Z,38.22
2018-08-07T09:31:51.708Z,38.02
2018-08-07T09:34:18.997Z,36.48
2018-08-07T09:36:46.378Z,38.44
2018-08-07T09:39:13.708Z,37.77
2018-08-07T09:41:41.046Z,38.33
2018-08-07T09:44:08.772Z,37.88
2018-08-07T09:46:36.257Z,39.09
2018-08-07T09:49:03.912Z,37.28
2018-08-07T09:51:31.289Z,37.68
2018-08-07T09:53:58.705Z,37.88
2018-08-07T09:56:26.061Z,36.16
2018-08-07T09:58:53.390Z,37.57
2018-08-07T10:01:26.523Z,38.30
2018-08-07T10:03:53.791Z,37.06
2018-08-07T10:06:21.141Z,36.34
2018-08-07T10:08:48.386Z,37.66
2018-08-07T10:11:15.779Z,38.66
2018-08-07T10:13:43.197Z,37.88
2018-08-07T10:16:10.600Z,38.31
2018-08-07T10:20:02.499Z,38.25
2018-08-07T10:22:29.822Z,37.78
2018-08-07T10:24:57.125Z,38.83
2018-08-07T10:27:24.406Z,38.10
2018-08-07T10:29:51.635Z,38.97
2018-08-07T10:32:18.988Z,38.29
2018-08-07T10:34:46.313Z,40.19
2018-08-07T10:37:13.620Z,39.57
2018-08-07T10:39:40.928Z,39.98
2018-08-07T10:42:08.256Z,41.38
2018-08-07T10:44:35.624Z,40.03
2018-08-07T10:47:02.981Z,40.66
2018-08-07T10:49:30.303Z,40.11
2018-08-07T10:51:57.623Z,40.64
2018-08-07T10:54:24.951Z,41.69
2018-08-07T10:56:52.365Z,47.64
2018-08-07T10:59:19.907Z,49.97
2018-08-07T11:01:47.377Z,50.11
2018-08-07T11:04:16.131Z,52.50
2018-08-07T11:06:43.492Z,53.91
2018-08-07T11:09:10.777Z,55.45
2018-08-07T11:11:38.096Z,55.38
2018-08-07T11:14:05.554Z,54.56
2018-08-07T11:16:33.075Z,55.03
2018-08-07T11:19:00.408Z,55.33
2018-08-07T11:21:27.786Z,55.13
2018-08-07T11:23:55.016Z,56.35
2018-08-07T11:26:22.320Z,56.77
2018-08-07T11:28:49.683Z,57.94
2018-08-07T11:31:16.979Z,57.44
2018-08-07T11:33:44.289Z,58.22
2018-08-07T11:36:11.611Z,58.41
2018-08-07T11:38:39.044Z,59.39
2018-08-07T11:41:06.384Z,58.71
2018-08-07T11:43:33.646Z,59.70
2018-08-07T11:46:00.970Z,60.30
2018-08-07T11:48:28.287Z,60.18
2018-08-07T11:50:55.662Z,61.12
2018-08-07T11:53:22.943Z,60.99
2018-08-07T11:55:50.368Z,60.72
2018-08-07T11:58:17.624Z,62.06
2018-08-07T12:00:45.017Z,61.43
2018-08-07T12:03:12.332Z,62.62
2018-08-07T12:05:39.653Z,62.66
2018-08-07T12:08:07.467Z,63.37
2018-08-07T12:10:35.021Z,63.52
2018-08-07T12:13:02.325Z,63.76
2018-08-07T12:15:29.567Z,64.14
2018-08-07T12:17:56.897Z,64.15
2018-08-07T12:20:24.145Z,66.03
2018-08-07T12:22:51.526Z,66.36
2018-08-07T12:25:19.468Z,65.85
2018-08-07T12:27:46.831Z,65.65
2018-08-07T12:30:18.321Z,66.13
2018-08-07T12:32:45.713Z,65.87
2018-08-07T12:35:13.178Z,66.88
2018-08-07T12:37:40.437Z,67.12
2018-08-07T12:40:11.282Z,67.11
2018-08-07T12:42:38.651Z,67.74
2018-08-07T12:45:06.121Z,67.43
2018-08-07T12:47:33.771Z,67.65
2018-08-07T12:50:01.129Z,67.79
2018-08-07T12:52:28.403Z,67.84
2018-08-07T12:54:55.901Z,68.34
2018-08-07T12:57:23.204Z,68.00
2018-08-07T12:59:50.460Z,67.59
2018-08-07T13:02:17.780Z,66.88
2018-08-07T13:04:45.136Z,67.05
2018-08-07T13:07:12.342Z,64.93
2018-08-07T13:09:39.652Z,64.77
2018-08-07T13:12:07.053Z,64.96
2018-08-07T13:14:34.404Z,65.51
2018-08-07T13:17:01.721Z,65.52
2018-08-07T13:19:29.004Z,64.88
2018-08-07T13:21:56.278Z,65.41
2018-08-07T13:24:23.681Z,65.49
2018-08-07T13:26:50.989Z,65.85
2018-08-07T13:29:18.230Z,66.04
2018-08-07T13:31:45.632Z,66.43
2018-08-07T13:34:12.947Z,64.99
2018-08-07T13:36:40.319Z,65.70
2018-08-07T13:39:08.768Z,65.58
2018-08-07T13:41:36.129Z,64.33
2018-08-07T13:44:04.379Z,63.83
2018-08-07T13:46:31.666Z,63.77
2018-08-07T13:48:58.997Z,65.88
2018-08-07T13:51:26.374Z,67.86
2018-08-07T13:53:53.668Z,70.31
2018-08-07T13:56:21.036Z,71.04
2018-08-07T13:58:48.411Z,69.31
2018-08-07T14:01:15.797Z,69.82
2018-08-07T14:03:43.031Z,68.07
2018-08-07T14:06:10.263Z,67.79
2018-08-07T14:08:37.591Z,67.94
2018-08-07T14:11:04.979Z,67.62
2018-08-07T14:13:32.318Z,66.52
2018-08-07T14:15:59.654Z,67.00
2018-08-07T14:18:26.988Z,66.04
2018-08-07T14:20:54.268Z,66.08
2018-08-07T14:23:21.628Z,65.09
2018-08-07T14:25:48.959Z,63.79
2018-08-07T14:28:16.361Z,63.72
2018-08-07T14:30:43.739Z,65.35
2018-08-07T14:33:11.082Z,63.31
2018-08-07T14:35:38.374Z,62.47
2018-08-07T14:38:05.768Z,63.62
2018-08-07T14:40:33.091Z,62.87
2018-08-07T14:43:00.369Z,62.66
2018-08-07T14:45:28.440Z,62.46
2018-08-07T14:47:56.352Z,61.80
2018-08-07T14:50:25.515Z,61.46
2018-08-07T14:52:52.960Z,60.58
2018-08-07T14:55:20.286Z,59.91
2018-08-07T14:57:47.606Z,60.54
2018-08-07T15:00:17.339Z,59.12
2018-08-07T15:02:45.068Z,58.68
2018-08-07T15:05:12.496Z,57.38
2018-08-07T15:07:39.800Z,57.01
2018-08-07T15:10:10.373Z,55.62
2018-08-07T15:12:37.612Z,56.37
2018-08-07T15:15:07.694Z,54.72
2018-08-07T15:17:34.974Z,53.75
2018-08-07T15:20:02.346Z,55.14
2018-08-07T15:22:29.593Z,54.65
2018-08-07T15:24:56.882Z,53.57
2018-08-07T15:27:24.121Z,54.41
2018-08-07T15:29:51.411Z,53.29
2018-08-07T15:32:18.720Z,54.39
2018-08-07T15:34:46.028Z,54.42
2018-08-07T15:37:13.359Z,55.26
2018-08-07T15:39:40.677Z,55.73
2018-08-07T15:42:08.966Z,56.14
2018-08-07T15:44:36.320Z,57.04
2018-08-07T15:47:03.593Z,57.59
2018-08-07T15:49:30.828Z,57.61
2018-08-07T15:51:58.123Z,57.96
2018-08-07T15:54:25.451Z,58.50
2018-08-07T15:56:52.846Z,58.66
2018-08-07T15:59:20.120Z,58.29
2018-08-07T16:01:48.096Z,58.62
2018-08-07T16:04:15.371Z,57.80
2018-08-07T16:06:42.682Z,58.02
2018-08-07T16:09:10.408Z,57.33
2018-08-07T16:11:37.858Z,57.39
2018-08-07T16:14:05.291Z,57.81
2018-08-07T16:16:32.585Z,57.13
2018-08-07T16:18:59.873Z,56.09
2018-08-07T16:21:27.207Z,56.58
2018-08-07T16:23:54.506Z,56.04
2018-08-07T16:26:21.843Z,55.21
2018-08-07T16:28:49.125Z,55.55
2018-08-07T16:31:16.480Z,56.18
2018-08-07T16:33:43.760Z,55.67
2018-08-07T16:36:11.140Z,55.60
2018-08-07T16:38:38.416Z,55.35
2018-08-07T16:42:30.395Z,54.31
2018-08-07T16:44:58.013Z,55.46
2018-08-07T16:47:25.246Z,54.24
2018-08-07T16:49:52.538Z,53.97
2018-08-07T16:52:19.853Z,52.58
2018-08-07T16:54:47.211Z,53.70
2018-08-07T16:57:14.483Z,55.13
2018-08-07T16:59:41.755Z,54.65
2018-08-07T17:02:09.082Z,55.21
2018-08-07T17:04:36.426Z,55.17
2018-08-07T17:07:03.785Z,54.81
2018-08-07T17:09:31.033Z,54.40
2018-08-07T17:11:58.359Z,54.76
2018-08-07T17:14:25.682Z,54.26
2018-08-07T17:16:52.932Z,54.40
2018-08-07T17:19:20.353Z,55.21
2018-08-07T17:21:47.683Z,54.05
2018-08-07T17:24:14.923Z,54.62
2018-08-07T17:26:42.293Z,55.13
2018-08-07T17:29:09.607Z,54.42
2018-08-07T17:31:36.956Z,54.26
2018-08-07T17:34:04.575Z,54.45
2018-08-07T17:36:31.846Z,54.00
2018-08-07T17:38:59.203Z,53.97
2018-08-07T17:41:26.460Z,54.82
2018-08-07T17:43:53.755Z,54.04
2018-08-07T17:46:20.998Z,54.00
2018-08-07T17:48:48.273Z,52.82
2018-08-07T17:51:15.556Z,53.10
2018-08-07T17:53:42.908Z,53.03
2018-08-07T17:56:10.253Z,51.74
2018-08-07T17:58:37.519Z,52.30
2018-08-07T18:01:04.840Z,52.20
2018-08-07T18:03:32.207Z,52.29
2018-08-07T18:05:59.476Z,52.08
2018-08-07T18:08:26.789Z,51.20
2018-08-07T18:10:54.062Z,51.05
2018-08-07T18:13:21.423Z,49.73
2018-08-07T18:15:48.724Z,49.87
2018-08-07T18:18:16.035Z,49.79
2018-08-07T18:20:43.345Z,50.04
2018-08-07T18:23:10.656Z,49.70
2018-08-07T18:25:38.054Z,49.26
2018-08-07T18:28:05.359Z,49.94
2018-08-07T18:30:32.677Z,49.38
2018-08-07T18:32:59.933Z,49.75
2018-08-07T18:35:27.339Z,50.25
2018-08-07T18:37:54.687Z,50.35
2018-08-07T18:40:21.989Z,51.03
2018-08-07T18:42:49.523Z,51.74
2018-08-07T18:45:16.850Z,50.99
2018-08-07T18:47:44.707Z,51.01
2018-08-07T18:50:13.536Z,51.35
2018-08-07T18:52:40.867Z,51.26
2018-08-07T18:55:10.179Z,51.10
2018-08-07T18:57:37.888Z,53.06
2018-08-07T19:00:07.441Z,54.27
2018-08-07T19:02:34.796Z,55.07
2018-08-07T19:05:02.111Z,56.45
2018-08-07T19:07:29.405Z,55.38
2018-08-07T19:09:56.715Z,55.31
2018-08-07T19:12:24.091Z,55.06
2018-08-07T19:14:51.290Z,54.97
2018-08-07T19:17:18.698Z,56.34
2018-08-07T19:19:45.999Z,56.24
2018-08-07T19:22:13.339Z,57.34
2018-08-07T19:24:40.646Z,57.60
2018-08-07T19:27:08.016Z,57.18
2018-08-07T19:29:35.341Z,56.10
2018-08-07T19:32:02.683Z,56.50
2018-08-07T19:34:30.001Z,55.90
2018-08-07T19:36:57.494Z,56.37
2018-08-07T19:39:24.891Z,57.02
2018-08-07T19:41:52.199Z,57.72
2018-08-07T19:44:19.817Z,57.59
2018-08-07T19:46:47.103Z,57.92
2018-08-07T19:49:14.409Z,57.81
2018-08-07T19:51:41.697Z,57.91
2018-08-07T19:54:09.012Z,58.56
2018-08-07T19:56:36.341Z,58.95
2018-08-07T19:59:03.661Z,59.39
2018-08-07T20:01:30.957Z,58.87
2018-08-07T20:03:58.288Z,59.43
2018-08-07T20:06:25.636Z,58.81
2018-08-07T20:08:52.983Z,59.31
2018-08-07T20:11:20.273Z,59.18
2018-08-07T20:13:47.682Z,59.18
2018-08-07T20:16:15.051Z,59.23
2018-08-07T20:18:42.340Z,59.52
2018-08-07T20:21:09.837Z,60.11
2018-08-07T20:23:37.176Z,60.71
2018-08-07T20:26:04.964Z,60.65
2018-08-07T20:28:32.267Z,60.52
2018-08-07T20:30:59.613Z,59.64
2018-08-07T20:33:26.928Z,60.15
2018-08-07T20:35:54.232Z,60.47
2018-08-07T20:38:21.687Z,59.93
2018-08-07T20:40:48.994Z,60.36
2018-08-07T20:43:16.326Z,60.25
2018-08-07T20:45:43.569Z,60.20
2018-08-07T20:48:10.887Z,60.71
2018-08-07T20:50:38.184Z,60.49
2018-08-07T20:53:05.490Z,60.61
2018-08-07T20:55:32.793Z,61.06
2018-08-07T20:58:00.082Z,62.10
2018-08-07T21:00:27.997Z,62.04
2018-08-07T21:02:55.414Z,62.77
2018-08-07T21:05:23.024Z,63.12
2018-08-07T21:07:50.549Z,63.51
2018-08-07T21:10:22.558Z,63.04
2018-08-07T21:12:50.020Z,64.13
2018-08-07T21:15:17.256Z,63.30
2018-08-07T21:17:44.582Z,64.07
2018-08-07T21:20:14.358Z,64.64
2018-08-07T21:22:41.679Z,65.06
2018-08-07T21:25:11.006Z,65.07
2018-08-07T21:27:38.459Z,65.58
2018-08-07T21:30:08.440Z,65.19
2018-08-07T21:32:35.718Z,64.90
2018-08-07T21:35:03.424Z,65.54
2018-08-07T21:37:30.745Z,65.72
2018-08-07T21:39:58.079Z,66.32
2018-08-07T21:42:25.404Z,66.05
2018-08-07T21:44:52.627Z,64.97
2018-08-07T21:47:20.165Z,65.69
2018-08-07T21:49:47.419Z,64.71
2018-08-07T21:52:14.747Z,65.27
2018-08-07T21:54:42.014Z,65.43
2018-08-07T21:57:09.379Z,65.32
2018-08-07T21:59:36.635Z,65.26
2018-08-07T22:02:04.081Z,65.04
2018-08-07T22:04:31.631Z,65.28
2018-08-07T22:06:58.865Z,65.17
2018-08-07T22:09:26.167Z,64.25
2018-08-07T22:11:53.489Z,64.77
2018-08-07T22:14:20.773Z,64.67
2018-08-07T22:16:48.095Z,63.86
2018-08-07T22:19:15.412Z,64.33
2018-08-07T22:21:42.769Z,64.14
2018-08-07T22:24:10.070Z,63.69
2018-08-07T22:26:43.088Z,63.65
2018-08-07T22:29:10.450Z,64.30
2018-08-07T22:31:37.957Z,64.23
2018-08-07T22:34:05.705Z,64.43
2018-08-07T22:36:32.960Z,64.60
2018-08-07T22:39:01.011Z,65.48
2018-08-07T22:41:28.306Z,65.53
2018-08-07T22:46:27.810Z,66.62
2018-08-07T22:48:55.112Z,67.13
2018-08-07T22:51:22.378Z,67.10
2018-08-07T22:53:49.617Z,66.74
2018-08-07T22:56:17.947Z,66.33
2018-08-07T22:58:45.252Z,65.65
2018-08-07T23:01:12.567Z,65.59
2018-08-07T23:03:39.850Z,65.38
2018-08-07T23:06:07.355Z,65.87
2018-08-07T23:08:34.632Z,66.66
2018-08-07T23:11:01.906Z,66.01
2018-08-07T23:13:29.222Z,66.49
2018-08-07T23:15:56.464Z,66.28
2018-08-07T23:18:23.796Z,66.49
2018-08-07T23:20:51.083Z,66.65
2018-08-07T23:23:18.357Z,68.58
2018-08-07T23:25:45.573Z,68.25
2018-08-07T23:28:12.837Z,68.38
2018-08-07T23:30:40.118Z,68.85
2018-08-07T23:33:07.590Z,68.34
2018-08-07T23:35:34.894Z,68.69
2018-08-07T23:38:02.396Z,68.68
2018-08-07T23:40:29.664Z,69.24
2018-08-07T23:42:57.071Z,70.30
2018-08-07T23:45:24.413Z,70.68
2018-08-07T23:47:51.622Z,70.36
2018-08-07T23:50:18.942Z,70.98
2018-08-07T23:52:46.196Z,70.63
2018-08-07T23:55:13.562Z,71.17
2018-08-07T23:57:40.796Z,72.13
